Huvudsida
METAR-TAF:

METAR-TAF

Flygplatser :

Dala Airport

Borlänge, Sverige

latitud: 60-26N, longitud: 015-31E, höjd: 145 m

Aktuellt väderrapport

Denna rapport gjordes för 21 minuter sedan, klockan 09:20 UTC
Vind 6 kt från ost
Temperatur 20°C
Fuktighet 40%
Tryck 1020 hPa
Sikt 10 km eller mer
Inga moln under 1 500 m eller inga cumulonimbus

METAR: ESSD 220920Z 09006KT CAVOK 20/06 Q1020

Tid: 11:41 (09:41 UTC)

Väderprognos

Denna rapport gjordes för 1 timme och 11 minuter sedan, klockan 08:30 UTC
Prognos gäller från 22 kl. 09 UTC till 22 kl. 18 UTC
Vind 3 kt från sydväst
Sikt 10 km eller mer
Inga moln under 1 500 m eller inga cumulonimbus

TAF: ESSD 220830Z 2209/2218 22003KT CAVOK

Aktuella väderrapporter och prognoser från 4000 flygplatser (METAR- och TAF-rapporter).

De tillgängliga stationerna syns som gula och röda prickar på kartan.

För musen över prickarna för att se namnen på stationerna.

Klicka sedan för att få väderrapporter och prognoser.

För att ändra kartan: Klicka på de gröna knapparna med ett svart kors på för att zooma in; den gröna knappen med ett streck på för att zooma ut; eller på de gröna pilarna för angränsande kartor.


METAR-TAF: